Time,TemperatureF,DewpointF,PressureIn,WindDirection,WindDirectionDegrees,WindSpeedMPH,WindSpeedGustMPH,Humidity,HourlyPrecipIn,Conditions,Clouds,dailyrainin,SoftwareType,DateUTC
2013-05-14 00:02:00,47.0,-99.9,-100.00,WNW,286,24.0,31.0,-999,-99.99,,,-99.99,,2013-05-14 06:02:00,
2013-05-14 00:13:00,47.0,-99.9,-100.00,WNW,286,24.0,31.0,-999,-99.99,,,-99.99,,2013-05-14 06:13:00,
2013-05-14 00:22:00,47.0,-99.9,-100.00,WNW,289,24.0,32.0,-999,-99.99,,,-99.99,,2013-05-14 06:22:00,
2013-05-14 00:32:00,47.0,-99.9,-100.00,WNW,286,25.0,35.0,-999,-99.99,,,-99.99,,2013-05-14 06:32:00,
2013-05-14 00:42:00,47.0,-99.9,-100.00,WNW,286,25.0,35.0,-999,-99.99,,,-99.99,,2013-05-14 06:42:00,
2013-05-14 00:52:00,47.0,-99.9,-100.00,West,281,26.0,33.0,-999,-99.99,,,-99.99,,2013-05-14 06:52:00,
2013-05-14 01:02:00,47.0,-99.9,-100.00,West,279,26.0,35.0,-999,-99.99,,,-99.99,,2013-05-14 07:02:00,
2013-05-14 01:11:00,47.0,-99.9,-100.00,West,279,26.0,35.0,-999,-99.99,,,-99.99,,2013-05-14 07:11:00,
2013-05-14 01:22:00,46.0,-99.9,-100.00,WNW,286,25.0,35.0,-999,-99.99,,,-99.99,,2013-05-14 07:22:00,
2013-05-14 01:32:00,46.0,-99.9,-100.00,WNW,294,22.0,31.0,-999,-99.99,,,-99.99,,2013-05-14 07:32:00,
2013-05-14 01:42:00,46.0,-99.9,-100.00,WNW,294,22.0,31.0,-999,-99.99,,,-99.99,,2013-05-14 07:42:00,
2013-05-14 01:52:00,46.0,-99.9,-100.00,WNW,296,22.0,36.0,-999,-99.99,,,-99.99,,2013-05-14 07:52:00,
2013-05-14 02:02:00,46.0,-99.9,-100.00,WNW,290,23.0,33.0,-999,-99.99,,,-99.99,,2013-05-14 08:02:00,
2013-05-14 02:11:00,46.0,-99.9,-100.00,WNW,290,23.0,33.0,-999,-99.99,,,-99.99,,2013-05-14 08:11:00,
2013-05-14 02:22:00,46.0,-99.9,-100.00,WNW,296,21.0,33.0,-999,-99.99,,,-99.99,,2013-05-14 08:22:00,
2013-05-14 02:32:00,46.0,-99.9,-100.00,WNW,292,22.0,35.0,-999,-99.99,,,-99.99,,2013-05-14 08:32:00,
2013-05-14 02:42:00,46.0,-99.9,-100.00,WNW,292,22.0,35.0,-999,-99.99,,,-99.99,,2013-05-14 08:42:00,
2013-05-14 02:52:00,45.0,-99.9,-100.00,WNW,298,22.0,33.0,-999,-99.99,,,-99.99,,2013-05-14 08:52:00,
2013-05-14 03:02:00,45.0,-99.9,-100.00,WNW,296,23.0,35.0,-999,-99.99,,,-99.99,,2013-05-14 09:02:00,
2013-05-14 03:11:00,45.0,-99.9,-100.00,WNW,296,23.0,35.0,-999,-99.99,,,-99.99,,2013-05-14 09:11:00,
2013-05-14 03:22:00,45.0,-99.9,-100.00,WNW,295,24.0,35.0,-999,-99.99,,,-99.99,,2013-05-14 09:22:00,
2013-05-14 03:33:00,44.0,-99.9,-100.00,WNW,295,22.0,35.0,-999,-99.99,,,-99.99,,2013-05-14 09:33:00,
2013-05-14 03:44:00,44.0,-99.9,-100.00,WNW,295,22.0,35.0,-999,-99.99,,,-99.99,,2013-05-14 09:44:00,
2013-05-14 03:55:00,44.0,-99.9,-100.00,WNW,303,23.0,35.0,-999,-99.99,,,-99.99,,2013-05-14 09:55:00,
2013-05-14 04:05:00,44.0,-99.9,-100.00,WNW,300,21.0,32.0,-999,-99.99,,,-99.99,,2013-05-14 10:05:00,
2013-05-14 04:14:00,44.0,-99.9,-100.00,WNW,300,21.0,32.0,-999,-99.99,,,-99.99,,2013-05-14 10:14:00,
2013-05-14 04:25:00,44.0,-99.9,-100.00,WNW,301,23.0,32.0,-999,-99.99,,,-99.99,,2013-05-14 10:25:00,
2013-05-14 04:33:00,44.0,-99.9,-100.00,NW,307,22.0,33.0,-999,-99.99,,,-99.99,,2013-05-14 10:33:00,
2013-05-14 04:43:00,44.0,-99.9,-100.00,NW,307,22.0,33.0,-999,-99.99,,,-99.99,,2013-05-14 10:43:00,
2013-05-14 04:53:00,45.0,-99.9,-100.00,WNW,301,23.0,39.0,-999,-99.99,,,-99.99,,2013-05-14 10:53:00,
2013-05-14 05:03:00,44.0,-99.9,-100.00,NW,308,26.0,38.0,-999,-99.99,,,-99.99,,2013-05-14 11:03:00,
2013-05-14 05:11:00,44.0,-99.9,-100.00,NW,308,26.0,38.0,-999,-99.99,,,-99.99,,2013-05-14 11:11:00,
2013-05-14 05:22:00,44.0,-99.9,-100.00,WNW,299,26.0,38.0,-999,-99.99,,,-99.99,,2013-05-14 11:22:00,
2013-05-14 05:32:00,44.0,-99.9,-100.00,NW,307,25.0,33.0,-999,-99.99,,,-99.99,,2013-05-14 11:32:00,
2013-05-14 05:43:00,44.0,-99.9,-100.00,NW,307,25.0,33.0,-999,-99.99,,,-99.99,,2013-05-14 11:43:00,
2013-05-14 05:53:00,43.0,-99.9,-100.00,WNW,299,23.0,32.0,-999,-99.99,,,-99.99,,2013-05-14 11:53:00,
2013-05-14 06:03:00,43.0,-99.9,-100.00,NW,306,20.0,35.0,-999,-99.99,,,-99.99,,2013-05-14 12:03:00,
2013-05-14 06:12:00,43.0,-99.9,-100.00,NW,306,20.0,35.0,-999,-99.99,,,-99.99,,2013-05-14 12:12:00,
2013-05-14 06:22:00,43.0,-99.9,-100.00,NW,313,18.0,28.0,-999,-99.99,,,-99.99,,2013-05-14 12:22:00,
2013-05-14 06:32:00,43.0,-99.9,-100.00,NNW,327,17.0,25.0,-999,-99.99,,,-99.99,,2013-05-14 12:32:00,
2013-05-14 06:42:00,43.0,-99.9,-100.00,NNW,327,17.0,25.0,-999,-99.99,,,-99.99,,2013-05-14 12:42:00,
2013-05-14 06:52:00,43.0,-99.9,-100.00,NNW,328,15.0,25.0,-999,-99.99,,,-99.99,,2013-05-14 12:52:00,
2013-05-14 07:02:00,42.0,-99.9,-100.00,NW,320,15.0,28.0,-999,-99.99,,,-99.99,,2013-05-14 13:02:00,
2013-05-14 07:11:00,42.0,-99.9,-100.00,NW,320,15.0,28.0,-999,-99.99,,,-99.99,,2013-05-14 13:11:00,
2013-05-14 07:22:00,41.0,-99.9,-100.00,NW,310,15.0,25.0,-999,-99.99,,,-99.99,,2013-05-14 13:22:00,
2013-05-14 07:32:00,41.0,-99.9,-100.00,NW,310,15.0,25.0,-999,-99.99,,,-99.99,,2013-05-14 13:32:00,
2013-05-14 07:42:00,41.0,-99.9,-100.00,NW,310,15.0,25.0,-999,-99.99,,,-99.99,,2013-05-14 13:42:00,
2013-05-14 07:52:00,42.0,-99.9,-100.00,WNW,295,15.0,24.0,-999,-99.99,,,-99.99,,2013-05-14 13:52:00,
2013-05-14 08:02:00,42.0,-99.9,-100.00,WNW,287,16.0,24.0,-999,-99.99,,,-99.99,,2013-05-14 14:02:00,
2013-05-14 08:11:00,42.0,-99.9,-100.00,WNW,287,16.0,24.0,-999,-99.99,,,-99.99,,2013-05-14 14:11:00,
2013-05-14 08:22:00,42.0,-99.9,-100.00,WNW,300,14.0,18.0,-999,-99.99,,,-99.99,,2013-05-14 14:22:00,
2013-05-14 08:32:00,42.0,-99.9,-100.00,WNW,301,14.0,24.0,-999,-99.99,,,-99.99,,2013-05-14 14:32:00,
2013-05-14 08:42:00,42.0,-99.9,-100.00,WNW,301,14.0,24.0,-999,-99.99,,,-99.99,,2013-05-14 14:42:00,
2013-05-14 08:53:00,43.0,-99.9,-100.00,WNW,286,14.0,19.0,-999,-99.99,,,-99.99,,2013-05-14 14:53:00,
2013-05-14 09:01:00,43.0,-99.9,-100.00,West,273,16.0,24.0,-999,-99.99,,,-99.99,,2013-05-14 15:01:00,
2013-05-14 09:12:00,43.0,-99.9,-100.00,West,273,16.0,24.0,-999,-99.99,,,-99.99,,2013-05-14 15:12:00,
2013-05-14 09:22:00,43.0,-99.9,-100.00,West,278,16.0,22.0,-999,-99.99,,,-99.99,,2013-05-14 15:22:00,
2013-05-14 09:33:00,43.0,-99.9,-100.00,WNW,294,18.0,25.0,-999,-99.99,,,-99.99,,2013-05-14 15:33:00,
2013-05-14 09:43:00,43.0,-99.9,-100.00,WNW,294,18.0,25.0,-999,-99.99,,,-99.99,,2013-05-14 15:43:00,
2013-05-14 09:53:00,44.0,-99.9,-100.00,NW,312,13.0,21.0,-999,-99.99,,,-99.99,,2013-05-14 15:53:00,
2013-05-14 10:03:00,46.0,-99.9,-100.00,NNW,346,8.0,18.0,-999,-99.99,,,-99.99,,2013-05-14 16:03:00,
2013-05-14 10:12:00,46.0,-99.9,-100.00,NNW,346,8.0,18.0,-999,-99.99,,,-99.99,,2013-05-14 16:12:00,
2013-05-14 10:23:00,45.0,-99.9,-100.00,NNW,338,10.0,21.0,-999,-99.99,,,-99.99,,2013-05-14 16:23:00,
2013-05-14 10:33:00,45.0,-99.9,-100.00,NW,305,13.0,22.0,-999,-99.99,,,-99.99,,2013-05-14 16:33:00,
2013-05-14 10:44:00,45.0,-99.9,-100.00,NW,305,13.0,22.0,-999,-99.99,,,-99.99,,2013-05-14 16:44:00,
2013-05-14 10:54:00,44.0,-99.9,-100.00,NW,304,15.0,26.0,-999,-99.99,,,-99.99,,2013-05-14 16:54:00,
2013-05-14 11:04:00,45.0,-99.9,-100.00,WNW,293,17.0,31.0,-999,-99.99,,,-99.99,,2013-05-14 17:04:00,
2013-05-14 11:14:00,45.0,-99.9,-100.00,WNW,293,17.0,31.0,-999,-99.99,,,-99.99,,2013-05-14 17:14:00,
2013-05-14 11:25:00,46.0,-99.9,-100.00,WNW,294,17.0,26.0,-999,-99.99,,,-99.99,,2013-05-14 17:25:00,
2013-05-14 11:33:00,45.0,-99.9,-100.00,West,278,20.0,29.0,-999,-99.99,,,-99.99,,2013-05-14 17:33:00,
2013-05-14 11:43:00,45.0,-99.9,-100.00,West,278,20.0,29.0,-999,-99.99,,,-99.99,,2013-05-14 17:43:00,
2013-05-14 11:53:00,45.0,-99.9,-100.00,WNW,290,20.0,26.0,-999,-99.99,,,-99.99,,2013-05-14 17:53:00,
2013-05-14 12:02:00,45.0,-99.9,-100.00,WNW,290,20.0,26.0,-999,-99.99,,,-99.99,,2013-05-14 18:02:00,
2013-05-14 12:12:00,46.0,-99.9,-100.00,NW,308,14.0,21.0,-999,-99.99,,,-99.99,,2013-05-14 18:12:00,
2013-05-14 12:22:00,46.0,-99.9,-100.00,NW,308,14.0,21.0,-999,-99.99,,,-99.99,,2013-05-14 18:22:00,
2013-05-14 12:32:00,46.0,-99.9,-100.00,WNW,291,17.0,26.0,-999,-99.99,,,-99.99,,2013-05-14 18:32:00,
2013-05-14 12:42:00,48.0,-99.9,-100.00,WNW,283,18.0,32.0,-999,-99.99,,,-99.99,,2013-05-14 18:42:00,
2013-05-14 12:52:00,48.0,-99.9,-100.00,WNW,283,18.0,32.0,-999,-99.99,,,-99.99,,2013-05-14 18:52:00,
2013-05-14 13:02:00,47.0,-99.9,-100.00,WNW,284,20.0,28.0,-999,-99.99,,,-99.99,,2013-05-14 19:02:00,
2013-05-14 13:12:00,48.0,-99.9,-100.00,West,277,23.0,32.0,-999,-99.99,,,-99.99,,2013-05-14 19:12:00,
2013-05-14 13:22:00,48.0,-99.9,-100.00,West,277,23.0,32.0,-999,-99.99,,,-99.99,,2013-05-14 19:22:00,
2013-05-14 13:32:00,47.0,-99.9,-100.00,West,280,21.0,32.0,-999,-99.99,,,-99.99,,2013-05-14 19:32:00,
2013-05-14 13:42:00,48.0,-99.9,-100.00,WNW,287,19.0,33.0,-999,-99.99,,,-99.99,,2013-05-14 19:42:00,
2013-05-14 13:53:00,48.0,-99.9,-100.00,WNW,287,19.0,33.0,-999,-99.99,,,-99.99,,2013-05-14 19:53:00,
2013-05-14 14:02:00,48.0,-99.9,-100.00,WNW,290,19.0,31.0,-999,-99.99,,,-99.99,,2013-05-14 20:02:00,
2013-05-14 14:11:00,49.0,-99.9,-100.00,West,279,16.0,24.0,-999,-99.99,,,-99.99,,2013-05-14 20:11:00,
2013-05-14 14:23:00,49.0,-99.9,-100.00,West,279,16.0,24.0,-999,-99.99,,,-99.99,,2013-05-14 20:23:00,
2013-05-14 14:33:00,49.0,-99.9,-100.00,WNW,300,13.0,22.0,-999,-99.99,,,-99.99,,2013-05-14 20:33:00,
2013-05-14 14:44:00,51.0,-99.9,-100.00,WNW,282,12.0,18.0,-999,-99.99,,,-99.99,,2013-05-14 20:44:00,
2013-05-14 14:52:00,51.0,-99.9,-100.00,WNW,282,12.0,18.0,-999,-99.99,,,-99.99,,2013-05-14 20:52:00,
2013-05-14 15:03:00,49.0,-99.9,-100.00,West,281,12.0,25.0,-999,-99.99,,,-99.99,,2013-05-14 21:03:00,
2013-05-14 15:12:00,49.0,-99.9,-100.00,West,279,14.0,22.0,-999,-99.99,,,-99.99,,2013-05-14 21:12:00,
2013-05-14 15:23:00,49.0,-99.9,-100.00,West,279,14.0,22.0,-999,-99.99,,,-99.99,,2013-05-14 21:23:00,
2013-05-14 15:34:00,50.0,-99.9,-100.00,WNW,288,14.0,26.0,-999,-99.99,,,-99.99,,2013-05-14 21:34:00,
2013-05-14 15:43:00,49.0,-99.9,-100.00,WNW,284,15.0,21.0,-999,-99.99,,,-99.99,,2013-05-14 21:43:00,
2013-05-14 15:53:00,49.0,-99.9,-100.00,WNW,284,15.0,21.0,-999,-99.99,,,-99.99,,2013-05-14 21:53:00,
2013-05-14 16:04:00,49.0,-99.9,-100.00,West,275,18.0,32.0,-999,-99.99,,,-99.99,,2013-05-14 22:04:00,
2013-05-14 16:14:00,49.0,-99.9,-100.00,WNW,286,18.0,31.0,-999,-99.99,,,-99.99,,2013-05-14 22:14:00,
2013-05-14 16:24:00,49.0,-99.9,-100.00,WNW,286,18.0,31.0,-999,-99.99,,,-99.99,,2013-05-14 22:24:00,
2013-05-14 16:35:00,49.0,-99.9,-100.00,West,272,16.0,26.0,-999,-99.99,,,-99.99,,2013-05-14 22:35:00,
2013-05-14 16:45:00,49.0,-99.9,-100.00,WNW,286,17.0,26.0,-999,-99.99,,,-99.99,,2013-05-14 22:45:00,
2013-05-14 16:55:00,49.0,-99.9,-100.00,WNW,286,17.0,26.0,-999,-99.99,,,-99.99,,2013-05-14 22:55:00,
2013-05-14 17:04:00,49.0,-99.9,-100.00,WNW,286,17.0,26.0,-999,-99.99,,,-99.99,,2013-05-14 23:04:00,
2013-05-14 17:12:00,49.0,-99.9,-100.00,West,265,23.0,35.0,-999,-99.99,,,-99.99,,2013-05-14 23:12:00,
2013-05-14 17:22:00,49.0,-99.9,-100.00,West,265,23.0,35.0,-999,-99.99,,,-99.99,,2013-05-14 23:22:00,
2013-05-14 17:32:00,49.0,-99.9,-100.00,West,267,26.0,33.0,-999,-99.99,,,-99.99,,2013-05-14 23:32:00,
2013-05-14 17:44:00,49.0,-99.9,-100.00,West,269,25.0,33.0,-999,-99.99,,,-99.99,,2013-05-14 23:44:00,
2013-05-14 17:53:00,49.0,-99.9,-100.00,West,269,25.0,33.0,-999,-99.99,,,-99.99,,2013-05-14 23:53:00,
2013-05-14 18:02:00,47.0,-99.9,-100.00,West,274,24.0,32.0,-999,-99.99,,,-99.99,,2013-05-15 00:02:00,
2013-05-14 18:12:00,48.0,-99.9,-100.00,West,270,24.0,32.0,-999,-99.99,,,-99.99,,2013-05-15 00:12:00,
2013-05-14 18:22:00,48.0,-99.9,-100.00,West,270,24.0,32.0,-999,-99.99,,,-99.99,,2013-05-15 00:22:00,
2013-05-14 18:32:00,47.0,-99.9,-100.00,West,268,25.0,35.0,-999,-99.99,,,-99.99,,2013-05-15 00:32:00,
2013-05-14 18:42:00,47.0,-99.9,-100.00,West,272,25.0,33.0,-999,-99.99,,,-99.99,,2013-05-15 00:42:00,
2013-05-14 18:52:00,47.0,-99.9,-100.00,West,272,25.0,33.0,-999,-99.99,,,-99.99,,2013-05-15 00:52:00,
2013-05-14 19:01:00,47.0,-99.9,-100.00,West,271,25.0,35.0,-999,-99.99,,,-99.99,,2013-05-15 01:01:00,
2013-05-14 19:12:00,47.0,-99.9,-100.00,West,270,24.0,32.0,-999,-99.99,,,-99.99,,2013-05-15 01:12:00,
2013-05-14 19:22:00,47.0,-99.9,-100.00,West,270,24.0,32.0,-999,-99.99,,,-99.99,,2013-05-15 01:22:00,
2013-05-14 19:32:00,47.0,-99.9,-100.00,West,278,23.0,32.0,-999,-99.99,,,-99.99,,2013-05-15 01:32:00,
2013-05-14 19:42:00,46.0,-99.9,-100.00,West,280,25.0,33.0,-999,-99.99,,,-99.99,,2013-05-15 01:42:00,
2013-05-14 19:52:00,46.0,-99.9,-100.00,West,280,25.0,33.0,-999,-99.99,,,-99.99,,2013-05-15 01:52:00,
2013-05-14 20:02:00,46.0,-99.9,-100.00,WNW,284,23.0,33.0,-999,-99.99,,,-99.99,,2013-05-15 02:02:00,
2013-05-14 20:11:00,46.0,-99.9,-100.00,WNW,286,22.0,31.0,-999,-99.99,,,-99.99,,2013-05-15 02:11:00,
2013-05-14 20:22:00,46.0,-99.9,-100.00,WNW,286,22.0,31.0,-999,-99.99,,,-99.99,,2013-05-15 02:22:00,
2013-05-14 20:32:00,45.0,-99.9,-100.00,West,278,29.0,39.0,-999,-99.99,,,-99.99,,2013-05-15 02:32:00,
2013-05-14 20:42:00,45.0,-99.9,-100.00,West,278,29.0,39.0,-999,-99.99,,,-99.99,,2013-05-15 02:42:00,
2013-05-14 20:52:00,45.0,-99.9,-100.00,West,278,29.0,39.0,-999,-99.99,,,-99.99,,2013-05-15 02:52:00,
2013-05-14 21:01:00,44.0,-99.9,-100.00,WNW,283,30.0,39.0,-999,-99.99,,,-99.99,,2013-05-15 03:01:00,
2013-05-14 21:13:00,44.0,-99.9,-100.00,WNW,283,30.0,39.0,-999,-99.99,,,-99.99,,2013-05-15 03:13:00,
2013-05-14 21:22:00,43.0,-99.9,-100.00,West,281,28.0,36.0,-999,-99.99,,,-99.99,,2013-05-15 03:22:00,
2013-05-14 21:33:00,43.0,-99.9,-100.00,WNW,284,29.0,39.0,-999,-99.99,,,-99.99,,2013-05-15 03:33:00,
2013-05-14 21:44:00,43.0,-99.9,-100.00,WNW,284,29.0,39.0,-999,-99.99,,,-99.99,,2013-05-15 03:44:00,
2013-05-14 21:54:00,43.0,-99.9,-100.00,WNW,289,29.0,40.0,-999,-99.99,,,-99.99,,2013-05-15 03:54:00,
2013-05-14 22:03:00,43.0,-99.9,-100.00,WNW,288,27.0,35.0,-999,-99.99,,,-99.99,,2013-05-15 04:03:00,
2013-05-14 22:12:00,43.0,-99.9,-100.00,WNW,294,23.0,33.0,-999,-99.99,,,-99.99,,2013-05-15 04:12:00,
2013-05-14 22:24:00,43.0,-99.9,-100.00,WNW,294,23.0,33.0,-999,-99.99,,,-99.99,,2013-05-15 04:24:00,
2013-05-14 22:33:00,42.0,-99.9,-100.00,NW,304,21.0,32.0,-999,-99.99,,,-99.99,,2013-05-15 04:33:00,
2013-05-14 22:43:00,42.0,-99.9,-100.00,NW,304,21.0,32.0,-999,-99.99,,,-99.99,,2013-05-15 04:43:00,
2013-05-14 22:52:00,43.0,-99.9,-100.00,WNW,302,22.0,36.0,-999,-99.99,,,-99.99,,2013-05-15 04:52:00,
2013-05-14 23:02:00,42.0,-99.9,-100.00,WNW,300,21.0,29.0,-999,-99.99,,,-99.99,,2013-05-15 05:02:00,
2013-05-14 23:12:00,42.0,-99.9,-100.00,WNW,300,21.0,29.0,-999,-99.99,,,-99.99,,2013-05-15 05:12:00,
2013-05-14 23:22:00,42.0,-99.9,-100.00,NW,305,21.0,31.0,-999,-99.99,,,-99.99,,2013-05-15 05:22:00,
2013-05-14 23:32:00,43.0,-99.9,-100.00,WNW,294,27.0,39.0,-999,-99.99,,,-99.99,,2013-05-15 05:32:00,
2013-05-14 23:42:00,43.0,-99.9,-100.00,WNW,294,27.0,39.0,-999,-99.99,,,-99.99,,2013-05-15 05:42:00,
2013-05-14 23:52:00,44.0,-99.9,-100.00,WNW,286,30.0,39.0,-999,-99.99,,,-99.99,,2013-05-15 05:52:00,